Saturday, November 17, 2018, 11:00 AM EST
Back to Local

KIPT, Williamsport-lycoming County

Location: Montoursville, PA, United States Lat: 41.25
Local Time: 11:00 AM EST (16:00 GMT) Lon: -76.917
Time Zone: US/Eastern Elev: 528 ft

Show me the last for .
Show Coded

Time T Td Feel RH Dir Speed Gust Alt SLP Vis Weather Sky Remarks
2018-11-17 09:54 39 31 33 72 280° 8 - 30.20 30.21 10 BKN035 OVC044 None
2018-11-17 08:54 38 31 32 75 280° 8 - 30.19 30.20 10 OVC040 None
2018-11-17 07:54 38 31 32 75 290° 8 - 30.18 30.19 10 OVC037 None
2018-11-17 06:54 38 31 32 75 280° 8 - 30.15 30.16 10 OVC039 6-hr Min Temp (7am): 37.0°F
6-hr Max Temp (7am): 37.9°F
2018-11-17 05:54 38 31 31 75 270° 9 - 30.12 30.14 10 FEW034 OVC045 None
2018-11-17 04:54 37 31 31 78 280° 8 - 30.10 30.11 10 OVC043 None
2018-11-17 03:54 37 32 31 81 280° 8 - 30.07 30.08 10 OVC040 None
2018-11-17 02:54 37 31 30 78 280° 9 - 30.05 30.06 10 OVC031 None
2018-11-17 01:54 37 31 32 78 280° 6 - 30.03 30.04 10 OVC032 None
2018-11-17 00:54 37 31 32 78 290° 6 - 30.01 30.03 10 OVC028 6-hr Min Temp (1am): 36.0°F
6-hr Max Temp (1am): 37.0°F
2018-11-16 23:54 36 31 31 81 270° 6 - 29.99 30.00 10 BKN025 OVC030 24-hr Min Temp (12am): 30.0°F
24-hr Max Temp (12am): 37.9°F
2018-11-16 22:54 36 30 31 78 260° 6 - 29.98 29.99 10 OVC021 None
2018-11-16 21:54 36 29 31 75 270° 6 - 29.96 29.98 10 OVC022 None
2018-11-16 20:54 36 29 29 75 280° 9 - 29.95 29.96 10 OVC024 None
2018-11-16 19:54 36 29 30 75 280° 8 - 29.93 29.94 10 OVC024 None
2018-11-16 18:54 36 29 28 75 270° 13 - 29.91 29.93 10 OVC025 6-hr Min Temp (7pm): 36.0°F
6-hr Max Temp (7pm): 37.9°F
2018-11-16 17:54 36 29 30 75 260° 8 - 29.88 29.90 10 OVC026 None
2018-11-16 16:54 37 28 29 69 260° 12 - 29.86 29.87 10 OVC029 None
2018-11-16 16:35 37 28 27 69 260° 15 20 29.86 - 10 OVC029 None
2018-11-16 15:54 38 28 30 67 260° 12 - 29.83 29.85 10 OVC034 None
2018-11-16 14:54 38 28 27 67 260° 15 24 29.81 29.82 10 BKN035 OVC043 None
2018-11-16 14:24 38 29 30 69 260° 14 - 29.81 - 10 OVC031 None
2018-11-16 14:07 38 29 28 69 260° 13 21 29.80 - 10 OVC029 None
2018-11-16 13:54 38 29 28 69 250° 10 21 29.79 29.80 10 OVC031 None
2018-11-16 13:11 37 30 26 75 260° 14 24 29.79 - 10 SCT030 OVC036 None
2018-11-16 12:54 38 30 30 72 270° 13 - 29.79 29.80 10 OVC029 6-hr Precip Total (1pm): 0.00"
6-hr Min Temp (1pm): 30.0°F
6-hr Max Temp (1pm): 37.9°F
2018-11-16 12:49 37 30 29 74 270° 15 - 29.79 - 10 BKN029 OVC035 None
2018-11-16 12:10 37 31 28 78 260° 15 - 29.77 - 10 SCT030 BKN038 OVC120 None
2018-11-16 11:54 38 31 30 75 280° 14 - 29.78 29.80 10 OVC029 None
2018-11-16 11:38 37 31 30 78 270° 9 - 29.79 - 10 OVC029 None
2018-11-16 11:30 37 31 31 78 280° 8 - 29.79 - 10 BKN030 OVC110 None

Support USWX by starting your Amazon purchase here.